sensor_id;sensor_type;location;lat;lon;timestamp;temperature;humidity
51383;DHT22;37475;43.358;1.248;2022-07-22T00:01:29;23.40;67.90
51383;DHT22;37475;43.358;1.248;2022-07-22T00:03:55;23.40;67.60
51383;DHT22;37475;43.358;1.248;2022-07-22T00:06:21;23.40;68.10
51383;DHT22;37475;43.358;1.248;2022-07-22T00:08:47;23.30;67.60
51383;DHT22;37475;43.358;1.248;2022-07-22T00:11:13;23.30;67.30
51383;DHT22;37475;43.358;1.248;2022-07-22T00:13:38;23.40;67.30
51383;DHT22;37475;43.358;1.248;2022-07-22T00:16:05;23.30;68.00
51383;DHT22;37475;43.358;1.248;2022-07-22T00:18:31;23.10;69.80
51383;DHT22;37475;43.358;1.248;2022-07-22T00:20:57;22.70;70.40
51383;DHT22;37475;43.358;1.248;2022-07-22T00:23:22;22.40;72.00
51383;DHT22;37475;43.358;1.248;2022-07-22T00:25:48;22.10;72.50
51383;DHT22;37475;43.358;1.248;2022-07-22T00:28:14;22.30;72.50
51383;DHT22;37475;43.358;1.248;2022-07-22T00:30:40;22.40;70.90
51383;DHT22;37475;43.358;1.248;2022-07-22T00:33:06;22.30;73.20
51383;DHT22;37475;43.358;1.248;2022-07-22T00:35:31;22.30;72.20
51383;DHT22;37475;43.358;1.248;2022-07-22T00:37:57;22.40;71.90
51383;DHT22;37475;43.358;1.248;2022-07-22T00:40:23;22.20;74.00
51383;DHT22;37475;43.358;1.248;2022-07-22T00:42:49;22.10;73.30
51383;DHT22;37475;43.358;1.248;2022-07-22T00:45:16;22.20;74.90
51383;DHT22;37475;43.358;1.248;2022-07-22T00:47:41;22.10;75.60
51383;DHT22;37475;43.358;1.248;2022-07-22T00:50:08;22.20;74.50
51383;DHT22;37475;43.358;1.248;2022-07-22T00:52:34;22.10;75.30
51383;DHT22;37475;43.358;1.248;2022-07-22T00:55:01;22.10;75.10
51383;DHT22;37475;43.358;1.248;2022-07-22T00:57:28;22.10;74.50
51383;DHT22;37475;43.358;1.248;2022-07-22T00:59:55;22.20;74.30
51383;DHT22;37475;43.358;1.248;2022-07-22T01:02:21;22.20;75.10
51383;DHT22;37475;43.358;1.248;2022-07-22T01:04:47;22.30;75.20
51383;DHT22;37475;43.358;1.248;2022-07-22T01:07:13;22.30;74.70
51383;DHT22;37475;43.358;1.248;2022-07-22T01:09:43;22.10;76.70
51383;DHT22;37475;43.358;1.248;2022-07-22T01:12:09;22.10;77.20
51383;DHT22;37475;43.358;1.248;2022-07-22T01:14:36;22.10;76.90
51383;DHT22;37475;43.358;1.248;2022-07-22T01:17:02;22.00;77.10
51383;DHT22;37475;43.358;1.248;2022-07-22T01:19:28;22.10;77.00
51383;DHT22;37475;43.358;1.248;2022-07-22T01:21:54;22.10;76.30
51383;DHT22;37475;43.358;1.248;2022-07-22T01:24:20;22.00;76.70
51383;DHT22;37475;43.358;1.248;2022-07-22T01:26:46;22.00;76.90
51383;DHT22;37475;43.358;1.248;2022-07-22T01:29:12;22.10;76.50
51383;DHT22;37475;43.358;1.248;2022-07-22T01:31:38;22.20;75.80
51383;DHT22;37475;43.358;1.248;2022-07-22T01:34:04;22.30;75.90
51383;DHT22;37475;43.358;1.248;2022-07-22T01:36:30;22.20;77.10
51383;DHT22;37475;43.358;1.248;2022-07-22T01:38:56;21.90;78.40
51383;DHT22;37475;43.358;1.248;2022-07-22T01:41:22;21.80;78.70
51383;DHT22;37475;43.358;1.248;2022-07-22T01:43:48;21.90;77.40
51383;DHT22;37475;43.358;1.248;2022-07-22T01:46:14;22.00;76.50
51383;DHT22;37475;43.358;1.248;2022-07-22T01:48:40;22.00;77.30
51383;DHT22;37475;43.358;1.248;2022-07-22T01:51:06;22.00;77.20
51383;DHT22;37475;43.358;1.248;2022-07-22T01:53:32;22.00;76.60
51383;DHT22;37475;43.358;1.248;2022-07-22T01:55:58;22.00;77.50
51383;DHT22;37475;43.358;1.248;2022-07-22T01:58:24;21.90;76.90
51383;DHT22;37475;43.358;1.248;2022-07-22T02:00:49;21.90;76.90
51383;DHT22;37475;43.358;1.248;2022-07-22T02:03:15;21.90;76.80
51383;DHT22;37475;43.358;1.248;2022-07-22T02:05:41;22.00;76.60
51383;DHT22;37475;43.358;1.248;2022-07-22T02:08:09;21.90;77.50
51383;DHT22;37475;43.358;1.248;2022-07-22T02:10:36;21.90;77.80
51383;DHT22;37475;43.358;1.248;2022-07-22T02:13:03;21.70;78.40
51383;DHT22;37475;43.358;1.248;2022-07-22T02:15:29;21.70;78.20
51383;DHT22;37475;43.358;1.248;2022-07-22T02:17:55;21.60;78.50
51383;DHT22;37475;43.358;1.248;2022-07-22T02:20:22;21.60;78.50
51383;DHT22;37475;43.358;1.248;2022-07-22T02:22:48;21.60;78.90
51383;DHT22;37475;43.358;1.248;2022-07-22T02:25:14;21.50;79.30
51383;DHT22;37475;43.358;1.248;2022-07-22T02:27:41;21.30;79.90
51383;DHT22;37475;43.358;1.248;2022-07-22T02:30:08;21.20;80.20
51383;DHT22;37475;43.358;1.248;2022-07-22T02:32:35;21.10;80.80
51383;DHT22;37475;43.358;1.248;2022-07-22T02:35:01;21.10;81.10
51383;DHT22;37475;43.358;1.248;2022-07-22T02:37:27;21.10;80.60
51383;DHT22;37475;43.358;1.248;2022-07-22T02:39:53;21.10;80.00
51383;DHT22;37475;43.358;1.248;2022-07-22T02:42:19;21.20;80.60
51383;DHT22;37475;43.358;1.248;2022-07-22T02:44:45;21.20;79.70
51383;DHT22;37475;43.358;1.248;2022-07-22T02:47:10;21.30;80.00
51383;DHT22;37475;43.358;1.248;2022-07-22T02:49:36;21.30;79.40
51383;DHT22;37475;43.358;1.248;2022-07-22T02:52:02;21.40;78.40
51383;DHT22;37475;43.358;1.248;2022-07-22T02:54:28;21.40;79.30
51383;DHT22;37475;43.358;1.248;2022-07-22T02:56:54;21.30;79.30
51383;DHT22;37475;43.358;1.248;2022-07-22T02:59:20;21.30;79.20
51383;DHT22;37475;43.358;1.248;2022-07-22T03:01:46;21.30;79.60
51383;DHT22;37475;43.358;1.248;2022-07-22T03:04:12;21.10;80.60
51383;DHT22;37475;43.358;1.248;2022-07-22T03:06:38;21.00;81.50
51383;DHT22;37475;43.358;1.248;2022-07-22T03:09:03;21.00;81.20
51383;DHT22;37475;43.358;1.248;2022-07-22T03:11:30;21.10;80.40
51383;DHT22;37475;43.358;1.248;2022-07-22T03:13:55;21.10;80.90
51383;DHT22;37475;43.358;1.248;2022-07-22T03:16:21;21.10;80.30
51383;DHT22;37475;43.358;1.248;2022-07-22T03:18:47;21.10;79.60
51383;DHT22;37475;43.358;1.248;2022-07-22T03:21:13;21.20;79.10
51383;DHT22;37475;43.358;1.248;2022-07-22T03:23:38;21.20;79.70
51383;DHT22;37475;43.358;1.248;2022-07-22T03:26:04;21.00;80.80
51383;DHT22;37475;43.358;1.248;2022-07-22T03:28:30;20.80;81.30
51383;DHT22;37475;43.358;1.248;2022-07-22T03:30:56;20.70;81.40
51383;DHT22;37475;43.358;1.248;2022-07-22T03:33:22;20.70;82.00
51383;DHT22;37475;43.358;1.248;2022-07-22T03:35:47;20.60;82.30
51383;DHT22;37475;43.358;1.248;2022-07-22T03:38:14;20.60;82.20
51383;DHT22;37475;43.358;1.248;2022-07-22T03:40:39;20.50;82.20
51383;DHT22;37475;43.358;1.248;2022-07-22T03:43:05;20.50;82.30
51383;DHT22;37475;43.358;1.248;2022-07-22T03:45:31;20.50;82.00
51383;DHT22;37475;43.358;1.248;2022-07-22T03:47:57;20.60;82.30
51383;DHT22;37475;43.358;1.248;2022-07-22T03:50:26;20.60;81.70
51383;DHT22;37475;43.358;1.248;2022-07-22T03:52:52;20.60;81.80
51383;DHT22;37475;43.358;1.248;2022-07-22T03:55:17;20.50;82.10
51383;DHT22;37475;43.358;1.248;2022-07-22T03:57:43;20.50;81.40
51383;DHT22;37475;43.358;1.248;2022-07-22T04:00:09;20.60;81.20
51383;DHT22;37475;43.358;1.248;2022-07-22T04:02:35;20.60;80.90
51383;DHT22;37475;43.358;1.248;2022-07-22T04:05:01;20.70;81.10
51383;DHT22;37475;43.358;1.248;2022-07-22T04:07:27;20.70;81.20
51383;DHT22;37475;43.358;1.248;2022-07-22T04:09:53;20.60;81.60
51383;DHT22;37475;43.358;1.248;2022-07-22T04:12:34;20.60;82.10
51383;DHT22;37475;43.358;1.248;2022-07-22T04:15:01;20.60;82.30
51383;DHT22;37475;43.358;1.248;2022-07-22T04:17:27;20.40;82.80
51383;DHT22;37475;43.358;1.248;2022-07-22T04:19:53;20.40;83.00
51383;DHT22;37475;43.358;1.248;2022-07-22T04:22:19;20.40;83.10
51383;DHT22;37475;43.358;1.248;2022-07-22T04:24:45;20.40;83.10
51383;DHT22;37475;43.358;1.248;2022-07-22T04:27:10;20.40;83.10
51383;DHT22;37475;43.358;1.248;2022-07-22T04:29:36;20.40;83.30
51383;DHT22;37475;43.358;1.248;2022-07-22T04:32:02;20.30;83.00
51383;DHT22;37475;43.358;1.248;2022-07-22T04:34:28;20.40;83.00
51383;DHT22;37475;43.358;1.248;2022-07-22T04:36:54;20.40;83.20
51383;DHT22;37475;43.358;1.248;2022-07-22T04:39:20;20.50;83.20
51383;DHT22;37475;43.358;1.248;2022-07-22T04:41:46;20.40;83.20
51383;DHT22;37475;43.358;1.248;2022-07-22T04:44:11;20.30;83.70
51383;DHT22;37475;43.358;1.248;2022-07-22T04:46:37;20.20;83.70
51383;DHT22;37475;43.358;1.248;2022-07-22T04:49:03;20.30;83.70
51383;DHT22;37475;43.358;1.248;2022-07-22T04:51:29;20.30;83.60
51383;DHT22;37475;43.358;1.248;2022-07-22T04:53:55;20.30;83.40
51383;DHT22;37475;43.358;1.248;2022-07-22T04:56:21;20.30;83.40
51383;DHT22;37475;43.358;1.248;2022-07-22T04:58:47;20.20;84.00
51383;DHT22;37475;43.358;1.248;2022-07-22T05:01:13;20.10;84.30
51383;DHT22;37475;43.358;1.248;2022-07-22T05:03:42;20.20;84.50
51383;DHT22;37475;43.358;1.248;2022-07-22T05:06:08;20.20;84.10
51383;DHT22;37475;43.358;1.248;2022-07-22T05:08:34;20.30;84.30
51383;DHT22;37475;43.358;1.248;2022-07-22T05:11:00;20.30;84.30
51383;DHT22;37475;43.358;1.248;2022-07-22T05:13:26;20.30;83.80
51383;DHT22;37475;43.358;1.248;2022-07-22T05:15:51;20.40;83.30
51383;DHT22;37475;43.358;1.248;2022-07-22T05:18:17;20.50;83.00
51383;DHT22;37475;43.358;1.248;2022-07-22T05:20:43;20.60;82.80
51383;DHT22;37475;43.358;1.248;2022-07-22T05:23:09;20.60;82.30
51383;DHT22;37475;43.358;1.248;2022-07-22T05:25:35;20.60;82.10
51383;DHT22;37475;43.358;1.248;2022-07-22T05:28:01;20.80;81.80
51383;DHT22;37475;43.358;1.248;2022-07-22T05:30:27;21.00;81.20
51383;DHT22;37475;43.358;1.248;2022-07-22T05:32:53;21.00;80.90
51383;DHT22;37475;43.358;1.248;2022-07-22T05:35:19;21.10;80.40
51383;DHT22;37475;43.358;1.248;2022-07-22T05:37:46;21.10;80.50
51383;DHT22;37475;43.358;1.248;2022-07-22T05:40:12;21.10;81.20
51383;DHT22;37475;43.358;1.248;2022-07-22T05:42:38;21.10;82.50
51383;DHT22;37475;43.358;1.248;2022-07-22T05:45:06;21.10;83.60
51383;DHT22;37475;43.358;1.248;2022-07-22T05:47:32;21.00;84.20
51383;DHT22;37475;43.358;1.248;2022-07-22T05:49:58;21.10;84.50
51383;DHT22;37475;43.358;1.248;2022-07-22T05:52:24;21.00;85.10
51383;DHT22;37475;43.358;1.248;2022-07-22T05:54:49;21.00;85.10
51383;DHT22;37475;43.358;1.248;2022-07-22T05:57:15;20.90;85.70
51383;DHT22;37475;43.358;1.248;2022-07-22T05:59:41;20.80;85.70
51383;DHT22;37475;43.358;1.248;2022-07-22T06:02:07;20.70;86.10
51383;DHT22;37475;43.358;1.248;2022-07-22T06:04:33;20.80;86.10
51383;DHT22;37475;43.358;1.248;2022-07-22T06:06:59;20.70;86.30
51383;DHT22;37475;43.358;1.248;2022-07-22T06:09:25;20.70;86.30
51383;DHT22;37475;43.358;1.248;2022-07-22T06:11:51;20.70;86.50
51383;DHT22;37475;43.358;1.248;2022-07-22T06:14:17;20.80;86.40
51383;DHT22;37475;43.358;1.248;2022-07-22T06:16:43;20.90;86.00
51383;DHT22;37475;43.358;1.248;2022-07-22T06:19:09;21.10;85.70
51383;DHT22;37475;43.358;1.248;2022-07-22T06:21:35;21.20;85.60
51383;DHT22;37475;43.358;1.248;2022-07-22T06:24:01;21.30;84.90
51383;DHT22;37475;43.358;1.248;2022-07-22T06:26:27;21.50;84.30
51383;DHT22;37475;43.358;1.248;2022-07-22T06:28:53;21.50;84.30
51383;DHT22;37475;43.358;1.248;2022-07-22T06:31:19;21.50;83.90
51383;DHT22;37475;43.358;1.248;2022-07-22T06:33:45;21.50;84.00
51383;DHT22;37475;43.358;1.248;2022-07-22T06:36:10;21.50;83.90
51383;DHT22;37475;43.358;1.248;2022-07-22T06:38:36;21.60;83.40
51383;DHT22;37475;43.358;1.248;2022-07-22T06:41:02;21.60;83.50
51383;DHT22;37475;43.358;1.248;2022-07-22T06:43:28;21.70;83.40
51383;DHT22;37475;43.358;1.248;2022-07-22T06:45:54;21.60;83.40
51383;DHT22;37475;43.358;1.248;2022-07-22T06:48:20;21.70;83.30
51383;DHT22;37475;43.358;1.248;2022-07-22T06:50:46;21.60;83.50
51383;DHT22;37475;43.358;1.248;2022-07-22T06:53:12;21.70;83.00
51383;DHT22;37475;43.358;1.248;2022-07-22T06:55:37;21.70;83.10
51383;DHT22;37475;43.358;1.248;2022-07-22T06:58:03;21.80;83.00
51383;DHT22;37475;43.358;1.248;2022-07-22T07:00:29;22.00;82.40
51383;DHT22;37475;43.358;1.248;2022-07-22T07:02:58;22.10;81.70
51383;DHT22;37475;43.358;1.248;2022-07-22T07:05:25;22.20;81.60
51383;DHT22;37475;43.358;1.248;2022-07-22T07:07:53;22.10;81.40
51383;DHT22;37475;43.358;1.248;2022-07-22T07:10:19;22.10;81.70
51383;DHT22;37475;43.358;1.248;2022-07-22T07:12:44;22.00;82.00
51383;DHT22;37475;43.358;1.248;2022-07-22T07:15:11;22.00;82.10
51383;DHT22;37475;43.358;1.248;2022-07-22T07:17:40;22.10;81.80
51383;DHT22;37475;43.358;1.248;2022-07-22T07:20:06;22.30;81.40
51383;DHT22;37475;43.358;1.248;2022-07-22T07:22:33;22.50;80.40
51383;DHT22;37475;43.358;1.248;2022-07-22T07:25:06;22.70;79.90
51383;DHT22;37475;43.358;1.248;2022-07-22T07:27:33;22.80;79.60
51383;DHT22;37475;43.358;1.248;2022-07-22T07:30:00;23.00;79.10
51383;DHT22;37475;43.358;1.248;2022-07-22T07:32:26;22.80;79.00
51383;DHT22;37475;43.358;1.248;2022-07-22T07:34:52;23.00;78.70
51383;DHT22;37475;43.358;1.248;2022-07-22T07:37:18;23.20;78.00
51383;DHT22;37475;43.358;1.248;2022-07-22T07:39:44;23.10;78.30
51383;DHT22;37475;43.358;1.248;2022-07-22T07:42:10;23.20;78.40
51383;DHT22;37475;43.358;1.248;2022-07-22T07:44:35;23.20;77.50
51383;DHT22;37475;43.358;1.248;2022-07-22T07:47:01;23.40;77.50
51383;DHT22;37475;43.358;1.248;2022-07-22T07:49:27;23.50;76.90
51383;DHT22;37475;43.358;1.248;2022-07-22T07:51:53;23.80;75.80
51383;DHT22;37475;43.358;1.248;2022-07-22T07:54:19;23.80;76.20
51383;DHT22;37475;43.358;1.248;2022-07-22T07:56:45;23.70;75.70
51383;DHT22;37475;43.358;1.248;2022-07-22T07:59:11;23.80;76.30
51383;DHT22;37475;43.358;1.248;2022-07-22T08:01:37;23.90;75.10
51383;DHT22;37475;43.358;1.248;2022-07-22T08:04:03;23.80;76.00
51383;DHT22;37475;43.358;1.248;2022-07-22T08:06:29;24.00;74.40
51383;DHT22;37475;43.358;1.248;2022-07-22T08:08:55;23.90;75.50
51383;DHT22;37475;43.358;1.248;2022-07-22T08:11:21;24.00;74.30
51383;DHT22;37475;43.358;1.248;2022-07-22T08:13:47;24.10;74.50
51383;DHT22;37475;43.358;1.248;2022-07-22T08:16:13;24.20;73.90
51383;DHT22;37475;43.358;1.248;2022-07-22T08:18:39;24.20;73.90
51383;DHT22;37475;43.358;1.248;2022-07-22T08:21:05;24.40;73.70
51383;DHT22;37475;43.358;1.248;2022-07-22T08:23:31;24.70;72.50
51383;DHT22;37475;43.358;1.248;2022-07-22T08:25:58;24.60;72.40
51383;DHT22;37475;43.358;1.248;2022-07-22T08:28:24;24.80;72.20
51383;DHT22;37475;43.358;1.248;2022-07-22T08:30:51;24.80;72.10
51383;DHT22;37475;43.358;1.248;2022-07-22T08:33:17;24.80;72.60
51383;DHT22;37475;43.358;1.248;2022-07-22T08:35:43;24.90;71.30
51383;DHT22;37475;43.358;1.248;2022-07-22T08:38:09;25.00;71.40
51383;DHT22;37475;43.358;1.248;2022-07-22T08:40:35;25.20;70.50
51383;DHT22;37475;43.358;1.248;2022-07-22T08:43:01;25.20;69.70
51383;DHT22;37475;43.358;1.248;2022-07-22T08:45:31;25.10;70.30
51383;DHT22;37475;43.358;1.248;2022-07-22T08:47:57;25.00;71.30
51383;DHT22;37475;43.358;1.248;2022-07-22T08:50:29;25.30;70.10
51383;DHT22;37475;43.358;1.248;2022-07-22T08:52:56;25.30;70.10
51383;DHT22;37475;43.358;1.248;2022-07-22T08:55:22;25.10;70.40
51383;DHT22;37475;43.358;1.248;2022-07-22T08:57:49;25.40;70.30
51383;DHT22;37475;43.358;1.248;2022-07-22T09:00:18;25.50;69.00
51383;DHT22;37475;43.358;1.248;2022-07-22T09:02:46;25.50;69.30
51383;DHT22;37475;43.358;1.248;2022-07-22T09:05:14;25.40;70.10
51383;DHT22;37475;43.358;1.248;2022-07-22T09:07:42;25.60;69.20
51383;DHT22;37475;43.358;1.248;2022-07-22T09:10:13;25.90;68.20
51383;DHT22;37475;43.358;1.248;2022-07-22T09:12:55;25.60;67.90
51383;DHT22;37475;43.358;1.248;2022-07-22T09:15:35;25.80;68.60
51383;DHT22;37475;43.358;1.248;2022-07-22T09:18:03;26.10;67.20
51383;DHT22;37475;43.358;1.248;2022-07-22T09:20:30;25.90;67.70
51383;DHT22;37475;43.358;1.248;2022-07-22T09:22:57;25.80;68.10
51383;DHT22;37475;43.358;1.248;2022-07-22T09:25:32;25.90;67.10
51383;DHT22;37475;43.358;1.248;2022-07-22T09:30:51;26.30;66.00
51383;DHT22;37475;43.358;1.248;2022-07-22T09:33:18;26.50;65.00
51383;DHT22;37475;43.358;1.248;2022-07-22T09:35:46;26.40;64.40
51383;DHT22;37475;43.358;1.248;2022-07-22T09:38:14;26.50;66.10
51383;DHT22;37475;43.358;1.248;2022-07-22T09:40:45;26.60;64.50
51383;DHT22;37475;43.358;1.248;2022-07-22T09:43:14;26.50;64.70
51383;DHT22;37475;43.358;1.248;2022-07-22T09:45:53;26.60;64.40
51383;DHT22;37475;43.358;1.248;2022-07-22T09:48:23;26.90;63.50
51383;DHT22;37475;43.358;1.248;2022-07-22T09:50:51;27.00;63.10
51383;DHT22;37475;43.358;1.248;2022-07-22T09:53:20;27.00;63.30
51383;DHT22;37475;43.358;1.248;2022-07-22T09:55:46;27.30;62.30
51383;DHT22;37475;43.358;1.248;2022-07-22T09:58:13;27.10;62.40
51383;DHT22;37475;43.358;1.248;2022-07-22T10:00:40;27.30;62.10
51383;DHT22;37475;43.358;1.248;2022-07-22T10:03:12;27.30;62.00
51383;DHT22;37475;43.358;1.248;2022-07-22T10:05:42;27.10;61.90
51383;DHT22;37475;43.358;1.248;2022-07-22T10:08:09;27.00;62.00
51383;DHT22;37475;43.358;1.248;2022-07-22T10:10:36;27.50;61.70
51383;DHT22;37475;43.358;1.248;2022-07-22T10:13:05;27.20;61.10
51383;DHT22;37475;43.358;1.248;2022-07-22T10:15:33;26.70;62.10
51383;DHT22;37475;43.358;1.248;2022-07-22T10:18:02;26.90;62.90
51383;DHT22;37475;43.358;1.248;2022-07-22T10:20:32;27.10;61.00
51383;DHT22;37475;43.358;1.248;2022-07-22T10:23:00;27.20;61.20
51383;DHT22;37475;43.358;1.248;2022-07-22T10:25:32;27.30;61.10
51383;DHT22;37475;43.358;1.248;2022-07-22T10:28:27;27.30;61.70
51383;DHT22;37475;43.358;1.248;2022-07-22T10:31:17;27.60;58.80
51383;DHT22;37475;43.358;1.248;2022-07-22T10:33:50;28.00;59.60
51383;DHT22;37475;43.358;1.248;2022-07-22T10:36:36;28.20;57.90
51383;DHT22;37475;43.358;1.248;2022-07-22T10:39:09;28.10;57.30
51383;DHT22;37475;43.358;1.248;2022-07-22T10:41:38;28.20;57.40
51383;DHT22;37475;43.358;1.248;2022-07-22T10:44:06;28.00;57.70
51383;DHT22;37475;43.358;1.248;2022-07-22T10:46:54;28.10;58.90
51383;DHT22;37475;43.358;1.248;2022-07-22T10:49:24;28.90;55.80
51383;DHT22;37475;43.358;1.248;2022-07-22T10:57:55;28.40;57.10
51383;DHT22;37475;43.358;1.248;2022-07-22T11:00:21;29.30;54.90
51383;DHT22;37475;43.358;1.248;2022-07-22T11:02:47;29.70;53.50
51383;DHT22;37475;43.358;1.248;2022-07-22T11:05:14;28.90;54.90
51383;DHT22;37475;43.358;1.248;2022-07-22T11:07:42;28.50;57.00
51383;DHT22;37475;43.358;1.248;2022-07-22T11:10:17;28.90;56.10
51383;DHT22;37475;43.358;1.248;2022-07-22T11:12:46;28.80;55.90
51383;DHT22;37475;43.358;1.248;2022-07-22T11:15:12;28.80;55.90
51383;DHT22;37475;43.358;1.248;2022-07-22T11:17:39;28.70;57.10
51383;DHT22;37475;43.358;1.248;2022-07-22T11:20:09;28.50;57.10
51383;DHT22;37475;43.358;1.248;2022-07-22T11:22:36;28.60;56.20
51383;DHT22;37475;43.358;1.248;2022-07-22T11:25:06;29.10;56.10
51383;DHT22;37475;43.358;1.248;2022-07-22T11:27:33;29.60;53.30
51383;DHT22;37475;43.358;1.248;2022-07-22T11:29:59;29.50;53.30
51383;DHT22;37475;43.358;1.248;2022-07-22T11:32:27;29.50;54.80
51383;DHT22;37475;43.358;1.248;2022-07-22T11:34:56;29.00;55.40
51383;DHT22;37475;43.358;1.248;2022-07-22T11:37:24;29.00;55.40
51383;DHT22;37475;43.358;1.248;2022-07-22T11:39:52;28.70;55.70
51383;DHT22;37475;43.358;1.248;2022-07-22T11:42:27;29.00;56.10
51383;DHT22;37475;43.358;1.248;2022-07-22T11:44:53;29.30;54.20
51383;DHT22;37475;43.358;1.248;2022-07-22T11:47:19;29.70;54.10
51383;DHT22;37475;43.358;1.248;2022-07-22T11:49:46;28.90;55.40
51383;DHT22;37475;43.358;1.248;2022-07-22T11:52:15;28.90;55.30
51383;DHT22;37475;43.358;1.248;2022-07-22T11:54:43;28.70;56.20
51383;DHT22;37475;43.358;1.248;2022-07-22T11:57:10;28.60;55.80
51383;DHT22;37475;43.358;1.248;2022-07-22T11:59:36;28.40;56.10
51383;DHT22;37475;43.358;1.248;2022-07-22T12:02:04;28.60;55.50
51383;DHT22;37475;43.358;1.248;2022-07-22T12:04:32;29.00;55.30
51383;DHT22;37475;43.358;1.248;2022-07-22T12:07:00;29.30;53.20
51383;DHT22;37475;43.358;1.248;2022-07-22T12:09:34;28.80;54.90
51383;DHT22;37475;43.358;1.248;2022-07-22T12:12:02;29.00;54.40
51383;DHT22;37475;43.358;1.248;2022-07-22T12:14:31;29.20;53.30
51383;DHT22;37475;43.358;1.248;2022-07-22T12:17:01;29.40;52.90
51383;DHT22;37475;43.358;1.248;2022-07-22T12:19:30;28.60;54.20
51383;DHT22;37475;43.358;1.248;2022-07-22T12:22:06;28.20;55.30
51383;DHT22;37475;43.358;1.248;2022-07-22T12:24:41;28.00;56.20
51383;DHT22;37475;43.358;1.248;2022-07-22T12:27:08;28.10;56.10
51383;DHT22;37475;43.358;1.248;2022-07-22T12:34:37;28.40;56.40
51383;DHT22;37475;43.358;1.248;2022-07-22T12:42:36;28.60;56.10
51383;DHT22;37475;43.358;1.248;2022-07-22T12:47:42;28.60;56.10
51383;DHT22;37475;43.358;1.248;2022-07-22T12:50:23;28.30;57.00
51383;DHT22;37475;43.358;1.248;2022-07-22T12:52:52;28.50;56.50
51383;DHT22;37475;43.358;1.248;2022-07-22T12:55:23;28.50;56.70
51383;DHT22;37475;43.358;1.248;2022-07-22T12:57:49;28.40;56.30
51383;DHT22;37475;43.358;1.248;2022-07-22T13:00:20;28.00;57.50
51383;DHT22;37475;43.358;1.248;2022-07-22T13:02:48;28.00;56.50
51383;DHT22;37475;43.358;1.248;2022-07-22T13:05:15;27.90;56.70
51383;DHT22;37475;43.358;1.248;2022-07-22T13:07:42;27.80;56.00
51383;DHT22;37475;43.358;1.248;2022-07-22T13:10:08;27.70;56.60
51383;DHT22;37475;43.358;1.248;2022-07-22T13:12:35;27.50;56.90
51383;DHT22;37475;43.358;1.248;2022-07-22T13:15:01;27.20;58.70
51383;DHT22;37475;43.358;1.248;2022-07-22T13:17:27;27.30;59.00
51383;DHT22;37475;43.358;1.248;2022-07-22T13:19:53;27.10;59.60
51383;DHT22;37475;43.358;1.248;2022-07-22T13:22:19;27.00;60.30
51383;DHT22;37475;43.358;1.248;2022-07-22T13:24:44;26.90;60.40
51383;DHT22;37475;43.358;1.248;2022-07-22T13:27:10;27.00;60.20
51383;DHT22;37475;43.358;1.248;2022-07-22T13:29:36;27.10;59.30
51383;DHT22;37475;43.358;1.248;2022-07-22T13:32:02;27.00;59.80
51383;DHT22;37475;43.358;1.248;2022-07-22T13:34:28;27.20;59.40
51383;DHT22;37475;43.358;1.248;2022-07-22T13:36:54;27.00;60.00
51383;DHT22;37475;43.358;1.248;2022-07-22T13:39:20;27.10;59.60
51383;DHT22;37475;43.358;1.248;2022-07-22T13:41:47;27.20;59.00
51383;DHT22;37475;43.358;1.248;2022-07-22T13:44:13;27.20;58.00
51383;DHT22;37475;43.358;1.248;2022-07-22T13:46:39;27.30;57.90
51383;DHT22;37475;43.358;1.248;2022-07-22T13:49:05;27.30;57.90
51383;DHT22;37475;43.358;1.248;2022-07-22T13:51:30;27.10;58.50
51383;DHT22;37475;43.358;1.248;2022-07-22T13:53:57;27.50;56.80
51383;DHT22;37475;43.358;1.248;2022-07-22T13:56:24;27.20;57.70
51383;DHT22;37475;43.358;1.248;2022-07-22T13:58:50;27.20;57.80
51383;DHT22;37475;43.358;1.248;2022-07-22T14:01:16;27.30;57.30
51383;DHT22;37475;43.358;1.248;2022-07-22T14:03:42;27.20;58.00
51383;DHT22;37475;43.358;1.248;2022-07-22T14:06:08;27.50;57.70
51383;DHT22;37475;43.358;1.248;2022-07-22T14:08:37;27.00;59.30
51383;DHT22;37475;43.358;1.248;2022-07-22T14:11:03;26.70;61.00
51383;DHT22;37475;43.358;1.248;2022-07-22T14:13:29;26.70;60.90
51383;DHT22;37475;43.358;1.248;2022-07-22T14:15:55;26.80;60.60
51383;DHT22;37475;43.358;1.248;2022-07-22T14:18:21;26.40;61.70
51383;DHT22;37475;43.358;1.248;2022-07-22T14:20:47;26.20;62.20
51383;DHT22;37475;43.358;1.248;2022-07-22T14:23:13;26.00;62.80
51383;DHT22;37475;43.358;1.248;2022-07-22T14:25:40;26.00;62.70
51383;DHT22;37475;43.358;1.248;2022-07-22T14:28:07;26.00;62.20
51383;DHT22;37475;43.358;1.248;2022-07-22T14:30:33;26.00;62.50
51383;DHT22;37475;43.358;1.248;2022-07-22T14:33:00;26.00;62.20
51383;DHT22;37475;43.358;1.248;2022-07-22T14:35:26;25.90;62.40
51383;DHT22;37475;43.358;1.248;2022-07-22T14:37:52;26.10;61.90
51383;DHT22;37475;43.358;1.248;2022-07-22T14:40:17;26.00;62.00
51383;DHT22;37475;43.358;1.248;2022-07-22T14:42:44;26.20;62.00
51383;DHT22;37475;43.358;1.248;2022-07-22T14:45:10;26.20;61.60
51383;DHT22;37475;43.358;1.248;2022-07-22T14:47:36;26.10;61.50
51383;DHT22;37475;43.358;1.248;2022-07-22T14:50:04;26.00;62.20
51383;DHT22;37475;43.358;1.248;2022-07-22T14:52:31;25.80;62.80
51383;DHT22;37475;43.358;1.248;2022-07-22T14:54:57;25.90;62.80
51383;DHT22;37475;43.358;1.248;2022-07-22T14:57:23;25.80;62.70
51383;DHT22;37475;43.358;1.248;2022-07-22T14:59:49;25.80;63.00
51383;DHT22;37475;43.358;1.248;2022-07-22T15:02:14;25.70;63.40
51383;DHT22;37475;43.358;1.248;2022-07-22T15:04:40;25.80;63.60
51383;DHT22;37475;43.358;1.248;2022-07-22T15:07:06;25.90;63.00
51383;DHT22;37475;43.358;1.248;2022-07-22T15:09:32;25.80;62.90
51383;DHT22;37475;43.358;1.248;2022-07-22T15:11:58;25.70;62.90
51383;DHT22;37475;43.358;1.248;2022-07-22T15:14:24;25.60;63.00
51383;DHT22;37475;43.358;1.248;2022-07-22T15:16:49;25.50;63.00
51383;DHT22;37475;43.358;1.248;2022-07-22T15:19:15;25.50;62.20
51383;DHT22;37475;43.358;1.248;2022-07-22T15:21:41;25.50;62.90
51383;DHT22;37475;43.358;1.248;2022-07-22T15:24:07;25.50;62.90
51383;DHT22;37475;43.358;1.248;2022-07-22T15:26:34;25.70;62.40
51383;DHT22;37475;43.358;1.248;2022-07-22T15:28:59;25.50;62.80
51383;DHT22;37475;43.358;1.248;2022-07-22T15:31:26;25.80;62.10
51383;DHT22;37475;43.358;1.248;2022-07-22T15:33:53;25.90;62.10
51383;DHT22;37475;43.358;1.248;2022-07-22T15:36:19;26.00;61.90
51383;DHT22;37475;43.358;1.248;2022-07-22T15:38:45;26.00;62.00
51383;DHT22;37475;43.358;1.248;2022-07-22T15:41:11;26.10;61.80
51383;DHT22;37475;43.358;1.248;2022-07-22T15:43:38;26.00;61.40
51383;DHT22;37475;43.358;1.248;2022-07-22T15:46:06;25.90;61.70
51383;DHT22;37475;43.358;1.248;2022-07-22T15:48:32;25.70;62.00
51383;DHT22;37475;43.358;1.248;2022-07-22T15:50:58;25.70;62.50